Hauptseite
METAR-TAF:

METAR-TAF

Flughäfen :

Basel-Mülhausen, Frankreich

Flughafen Basel-Mülhausen

Breite: 47-36N, Länge: 007-31E, Höhe: 270 m

Beobachtung

Neuester Wetterbericht von vor 12 Minuten, um 10:00 UTC
Wind 2 kt aus unterschiedlichen Richtungen
Temperatur 22°C
Luftfeuchtigkeit 33%
Luftdruck 1027 hPa
Sichtweite 10 km oder mehr
keine Wolken unter 1500 m und keine Kumulonimbus oder Gewitterwolken

METAR: LFSB 191000Z VRB02KT CAVOK 22/05 Q1027 NOSIG

Zeit: 12:12 (10:12 UTC)

Prognose

Neuester Wetterbericht von vor 5 Stunden und 12 Minuten, um 05:00 UTC
Gültige Prognose vom 19 um 06 UTC bis 20 um 06 UTC
Wind 3 kt aus unterschiedlichen Richtungen
Sichtweite 10 km oder mehr
keine Wolken unter 1500 m und keine Kumulonimbus oder Gewitterwolken
Übergehend zu
vom 19 um 08 UTC bis 19 um 10 UTC
Wind 5 kt aus Nord

TAF: LFSB 190500Z 1906/2006 VRB03KT CAVOK BECMG 1908/1910 36005KT

Wetterbeobachtungen und Prognosen von mehr als 4000 Flughäfen (METAR und TAF Bericht).

Die verfügbaren Stationen werden durch gelbe und rote Markierungen auf der Karte dargestellt.

Führen Sie die Maus auf sie, um den Namen der Station zu sehen.

Darauf klicken, um die Beobachtung von Wetterbeobachtungen und Prognosen zu sehen.

Um die Karte zu ändern : klicken Sie auf den grünen Tasten mit einem schwarzen Kreuz Zum Vergrößern, auf den grünen Button mit einem Gedankenstrich zu verkleinern, oder auf die grünen Pfeile für benachbarte Karten.


METAR-TAF: